Beale Air Force Base
KBAB : now visible

Airfield :











YOU CAN JOIN US ON...

 
LOGIN :

Register | Disclaimer

   EN    FR    IT 

 









Legend :    VFR   Marginal VFR   IFR   Intensive IFR   Very Intensive IFR
Visi :
Ceiling :
>= 8 km
>= 3000ft
5 to 8 km
1000 to 3000 ft
1500m to 5 km
500 to 1000 ft
800 to 1500m
200 to 500 ft
< 800m
< 200 ft
Symbols :   Thunderstorms  Fog  Heavy snow  Heavy precipitations  Wind > 20 kt






- Airport Elevation : 113 ft


KBAB - Beale Air Force Base

CURRENT METAR :
  • 170258Z AUTO 03004KT 10SM CLR 12/07 A3011 RMK AO2 SLP199 T01230070 55000 $

EXPIRED METARs :
  • 170158Z AUTO 33007KT 10SM CLR 13/07 A3011 RMK AO2 SLP199 T01340070 $

TAF AMD TAF KBAB
Valid from the 16 at 19:00 until the 18 at 01:00 UTC


161940Z 1619/1801 15009KT 9999 FEW150 SCT220 QNH3017INS
BECMG 1706/1707 33012KT 9999 FEW180 QNH3010INS
BECMG 1715/1716 36012G18KT 9999 SKC QNH3013INS TX18/1623Z TN06/1712Z LAST NO AMDS AFT 1701 NEXT 1814



MET'MAP, your aeronautical weather chart ! - Copyright ORBIFLY December 2007 - Disclaimer

ORBIFLY MET'MAP TEAM :

Programming & Development : Alexandra Zaïnal
Concept & original design : Baudouin d'Aumeries
Assistance for programming : Marc-Olivier Méhu
Technical & hardware support : Manuel Goepfert

Contact : metmap@orbifly.com




SOURCES & CREDITS :

   NOAA       Earth
Advisory